Time;durP1;ratioP1;P1;durP2;ratioP2;P2;SDS_P1;SDS_P2;PMS_P1;PMS_P2;Temp;Humidity;BMP_temperature;BMP_pressure;BME280_temperature;BME280_humidity;BME280_pressure;Samples;Min_cycle;Max_cycle;Signal;HPM_P1;HPM_P2
2024/02/28 00:02:23;;;;;;;1.47;1.37;;;;;;;;;;5076709;28;20020;-68
2024/02/28 00:04:48;;;;;;;2.03;1.50;;;;;;;;;;5076524;28;20238;-68
2024/02/28 00:07:13;;;;;;;0.40;0.40;;;;;;;;;;5076406;28;20013;-68
2024/02/28 00:09:39;;;;;;;0.80;0.80;;;;;;;;;;5076489;28;20111;-68
2024/02/28 00:12:04;;;;;;;1.52;1.42;;;;;;;;;;5076587;28;20046;-68
2024/02/28 00:14:29;;;;;;;0.52;0.32;;;;;;;;;;5076377;28;20074;-68
2024/02/28 00:16:55;;;;;;;0.73;0.67;;;;;;;;;;5076364;28;20097;-68
2024/02/28 00:19:20;;;;;;;0.30;0.30;;;;;;;;;;5076482;28;20308;-68
2024/02/28 00:21:45;;;;;;;0.43;0.43;;;;;;;;;;5076208;28;20024;-68
2024/02/28 00:24:11;;;;;;;0.10;0.10;;;;;;;;;;5076226;28;20024;-68
2024/02/28 00:26:40;;;;;;;0.75;0.75;;;;;;;;;;5076182;28;20022;-68
2024/02/28 00:29:05;;;;;;;0.25;0.25;;;;;;;;;;5076155;28;20476;-68
2024/02/28 00:31:30;;;;;;;1.10;1.07;;;;;;;;;;5076097;28;20027;-68
2024/02/28 00:33:55;;;;;;;0.90;0.90;;;;;;;;;;5058135;28;20249;-68
2024/02/28 00:36:21;;;;;;;0.10;0.10;;;;;;;;;;5075053;28;20468;-68
2024/02/28 00:38:46;;;;;;;0.25;0.25;;;;;;;;;;5076009;28;20808;-68
2024/02/28 00:41:11;;;;;;;1.27;0.55;;;;;;;;;;5075830;28;20028;-68
2024/02/28 00:43:36;;;;;;;0.43;0.30;;;;;;;;;;5075886;28;20025;-68
2024/02/28 00:46:03;;;;;;;0.40;0.40;;;;;;;;;;5075806;28;20259;-68
2024/02/28 00:48:28;;;;;;;0.38;0.38;;;;;;;;;;5076033;28;20579;-68
2024/02/28 00:50:54;;;;;;;0.30;0.30;;;;;;;;;;5075781;28;20031;-68
2024/02/28 00:53:22;;;;;;;1.15;1.08;;;;;;;;;;5075931;28;20082;-68
2024/02/28 00:55:47;;;;;;;0.98;0.68;;;;;;;;;;5075929;28;20487;-68
2024/02/28 00:58:13;;;;;;;0.13;0.13;;;;;;;;;;5075594;28;20099;-68
2024/02/28 01:00:38;;;;;;;1.23;0.82;;;;;;;;;;5075294;28;20324;-68
2024/02/28 01:03:04;;;;;;;1.05;1.02;;;;;;;;;;5075505;28;20044;-68
2024/02/28 01:05:29;;;;;;;0.82;0.70;;;;;;;;;;5075730;28;20031;-68
2024/02/28 01:07:54;;;;;;;0.25;0.25;;;;;;;;;;5075521;28;20107;-68
2024/02/28 01:10:20;;;;;;;0.27;0.27;;;;;;;;;;5075419;28;20031;-68
2024/02/28 01:12:45;;;;;;;1.10;1.07;;;;;;;;;;5075254;28;20258;-68
2024/02/28 01:15:10;;;;;;;0.10;0.10;;;;;;;;;;5075297;28;20260;-68
2024/02/28 01:17:35;;;;;;;0.30;0.30;;;;;;;;;;5075515;28;20341;-68
2024/02/28 01:20:01;;;;;;;1.00;0.73;;;;;;;;;;5075142;28;20051;-68
2024/02/28 01:22:26;;;;;;;0.10;0.10;;;;;;;;;;5075225;28;20337;-68
2024/02/28 01:24:51;;;;;;;0.17;0.17;;;;;;;;;;5075069;28;20028;-68
2024/02/28 01:27:16;;;;;;;0.30;0.30;;;;;;;;;;5075076;28;20100;-67
2024/02/28 01:29:42;;;;;;;0.20;0.20;;;;;;;;;;5075002;28;20734;-68
2024/02/28 01:32:08;;;;;;;0.10;0.10;;;;;;;;;;5074868;28;20714;-68
2024/02/28 01:34:33;;;;;;;0.30;0.30;;;;;;;;;;5074905;28;20024;-68
2024/02/28 01:36:58;;;;;;;0.17;0.17;;;;;;;;;;5074857;28;20265;-68
2024/02/28 01:39:23;;;;;;;0.10;0.10;;;;;;;;;;5074789;28;20284;-68
2024/02/28 01:41:55;;;;;;;0.20;0.20;;;;;;;;;;5074759;28;20256;-68
2024/02/28 01:44:20;;;;;;;0.10;0.10;;;;;;;;;;5074967;28;20078;-68
2024/02/28 01:46:46;;;;;;;0.95;0.40;;;;;;;;;;5074890;28;20028;-68
2024/02/28 01:49:11;;;;;;;0.63;0.63;;;;;;;;;;5074834;28;20028;-68
2024/02/28 01:51:36;;;;;;;0.43;0.43;;;;;;;;;;5074605;28;20016;-68
2024/02/28 01:54:02;;;;;;;1.40;1.00;;;;;;;;;;5074527;28;20020;-69
2024/02/28 01:56:27;;;;;;;0.55;0.55;;;;;;;;;;5074527;28;20107;-68
2024/02/28 01:58:53;;;;;;;0.52;0.52;;;;;;;;;;5074570;28;20024;-68
2024/02/28 02:01:19;;;;;;;0.05;0.05;;;;;;;;;;5074218;28;20044;-68
2024/02/28 02:03:44;;;;;;;0.10;0.10;;;;;;;;;;5074544;28;20392;-68
2024/02/28 02:06:09;;;;;;;0.13;0.13;;;;;;;;;;5074246;28;20031;-68
2024/02/28 02:08:36;;;;;;;0.43;0.43;;;;;;;;;;5074442;28;20086;-68
2024/02/28 02:11:01;;;;;;;1.55;0.98;;;;;;;;;;5074529;28;20434;-68
2024/02/28 02:13:26;;;;;;;0.82;0.47;;;;;;;;;;5074029;28;20099;-68
2024/02/28 02:15:52;;;;;;;0.33;0.33;;;;;;;;;;5074081;28;20013;-68
2024/02/28 02:18:17;;;;;;;0.40;0.40;;;;;;;;;;5074034;28;20253;-68
2024/02/28 02:20:43;;;;;;;0.67;0.67;;;;;;;;;;5073920;28;20269;-68
2024/02/28 02:23:09;;;;;;;0.20;0.20;;;;;;;;;;5074113;28;20246;-68
2024/02/28 02:25:34;;;;;;;0.40;0.40;;;;;;;;;;5074058;28;20016;-68
2024/02/28 02:28:00;;;;;;;0.50;0.40;;;;;;;;;;5073822;28;20016;-68
2024/02/28 02:30:25;;;;;;;0.90;0.90;;;;;;;;;;5073824;28;20038;-68
2024/02/28 02:32:50;;;;;;;0.57;0.57;;;;;;;;;;5073769;28;20264;-68
2024/02/28 02:35:15;;;;;;;0.57;0.57;;;;;;;;;;5073726;28;20299;-68
2024/02/28 02:37:45;;;;;;;0.90;0.50;;;;;;;;;;5073676;28;20315;-68
2024/02/28 02:40:11;;;;;;;0.30;0.30;;;;;;;;;;5073507;28;20280;-68
2024/02/28 02:42:36;;;;;;;0.38;0.38;;;;;;;;;;5073559;28;20020;-67
2024/02/28 02:45:02;;;;;;;0.77;0.55;;;;;;;;;;5073846;28;20099;-68
2024/02/28 02:47:27;;;;;;;0.68;0.68;;;;;;;;;;5073530;28;20024;-68
2024/02/28 02:49:52;;;;;;;0.25;0.25;;;;;;;;;;5073804;28;20036;-68
2024/02/28 02:52:18;;;;;;;0.20;0.20;;;;;;;;;;5073463;28;20025;-68
2024/02/28 02:54:43;;;;;;;0.10;0.10;;;;;;;;;;5073501;28;20025;-68
2024/02/28 02:57:08;;;;;;;0.63;0.60;;;;;;;;;;5073523;28;20044;-68
2024/02/28 02:59:33;;;;;;;0.30;0.30;;;;;;;;;;5072955;28;20265;-64
2024/02/28 03:01:59;;;;;;;0.20;0.20;;;;;;;;;;5072843;28;20284;-64
2024/02/28 03:04:24;;;;;;;0.75;0.75;;;;;;;;;;5073613;28;20281;-64
2024/02/28 03:06:49;;;;;;;0.30;0.30;;;;;;;;;;5073379;28;20025;-64
2024/02/28 03:09:15;;;;;;;0.68;0.55;;;;;;;;;;5073335;28;20245;-64
2024/02/28 03:11:40;;;;;;;1.60;0.90;;;;;;;;;;5073227;28;20060;-64
2024/02/28 03:14:05;;;;;;;1.08;0.77;;;;;;;;;;5055300;28;20283;-64
2024/02/28 03:16:30;;;;;;;0.40;0.40;;;;;;;;;;5073247;28;20419;-64
2024/02/28 03:18:56;;;;;;;0.20;0.20;;;;;;;;;;5073410;28;20095;-64
2024/02/28 03:21:27;;;;;;;0.17;0.17;;;;;;;;;;5073442;28;20407;-64
2024/02/28 03:23:52;;;;;;;0.40;0.40;;;;;;;;;;5073164;28;20024;-64
2024/02/28 03:26:17;;;;;;;0.10;0.10;;;;;;;;;;5073364;28;20368;-64
2024/02/28 03:28:43;;;;;;;0.10;0.10;;;;;;;;;;5073164;28;20075;-64
2024/02/28 03:31:08;;;;;;;0.87;0.87;;;;;;;;;;5073125;28;20024;-64
2024/02/28 03:33:35;;;;;;;0.20;0.20;;;;;;;;;;5073023;28;20717;-64
2024/02/28 03:36:00;;;;;;;0.30;0.30;;;;;;;;;;5073315;28;20250;-64
2024/02/28 03:38:25;;;;;;;0.82;0.82;;;;;;;;;;5073298;28;20480;-64
2024/02/28 03:40:50;;;;;;;0.93;0.93;;;;;;;;;;5072923;28;20103;-64
2024/02/28 03:43:16;;;;;;;0.35;0.22;;;;;;;;;;5073172;28;20262;-64
2024/02/28 03:45:41;;;;;;;0.30;0.30;;;;;;;;;;5072963;28;20013;-64
2024/02/28 03:48:07;;;;;;;0.10;0.10;;;;;;;;;;5073149;28;20721;-64
2024/02/28 03:50:32;;;;;;;0.40;0.40;;;;;;;;;;5072957;28;20088;-64
2024/02/28 03:52:57;;;;;;;0.20;0.20;;;;;;;;;;5072882;28;20039;-64
2024/02/28 03:55:22;;;;;;;0.73;0.73;;;;;;;;;;5072831;28;20288;-64
2024/02/28 03:57:48;;;;;;;2.42;0.73;;;;;;;;;;5072778;28;20265;-64
2024/02/28 04:00:13;;;;;;;0.13;0.13;;;;;;;;;;5072761;28;20533;-64
2024/02/28 04:02:39;;;;;;;0.10;0.10;;;;;;;;;;5072623;28;20049;-64
2024/02/28 04:05:04;;;;;;;1.33;1.23;;;;;;;;;;5072801;28;20017;-64
2024/02/28 04:07:29;;;;;;;2.67;2.42;;;;;;;;;;5072902;28;20264;-65
2024/02/28 04:09:55;;;;;;;0.10;0.10;;;;;;;;;;5072701;28;20024;-64
2024/02/28 04:12:20;;;;;;;0.73;0.73;;;;;;;;;;5075580;28;20237;-64
2024/02/28 04:14:45;;;;;;;0.10;0.10;;;;;;;;;;5076300;28;20086;-64
2024/02/28 04:17:10;;;;;;;0.10;0.10;;;;;;;;;;5076414;28;20252;-64
2024/02/28 04:19:37;;;;;;;0.33;0.20;;;;;;;;;;5076307;28;20021;-64
2024/02/28 04:22:02;;;;;;;1.23;1.08;;;;;;;;;;5076376;28;20256;-64
2024/02/28 04:24:27;;;;;;;0.20;0.20;;;;;;;;;;5076499;28;20020;-64
2024/02/28 04:26:53;;;;;;;1.30;1.20;;;;;;;;;;5076164;28;20023;-64
2024/02/28 04:29:19;;;;;;;0.50;0.50;;;;;;;;;;5076387;28;20252;-65
2024/02/28 04:31:44;;;;;;;0.13;0.13;;;;;;;;;;5076139;28;20024;-64
2024/02/28 04:34:09;;;;;;;0.10;0.10;;;;;;;;;;5076095;28;20094;-64
2024/02/28 04:36:34;;;;;;;1.20;0.63;;;;;;;;;;5076021;28;20056;-64
2024/02/28 04:39:00;;;;;;;0.20;0.20;;;;;;;;;;5075974;28;20257;-64
2024/02/28 04:41:26;;;;;;;0.43;0.43;;;;;;;;;;5076129;28;20380;-64
2024/02/28 04:43:51;;;;;;;1.25;1.08;;;;;;;;;;5075816;28;20099;-64
2024/02/28 04:46:16;;;;;;;0.70;0.70;;;;;;;;;;5075887;28;20017;-64
2024/02/28 04:48:42;;;;;;;0.13;0.13;;;;;;;;;;5075829;28;20245;-64
2024/02/28 04:51:07;;;;;;;0.20;0.20;;;;;;;;;;5075708;28;20025;-64
2024/02/28 04:53:32;;;;;;;0.10;0.10;;;;;;;;;;5076012;28;20020;-64
2024/02/28 04:55:57;;;;;;;0.30;0.30;;;;;;;;;;5075892;28;20257;-64
2024/02/28 04:58:22;;;;;;;0.10;0.10;;;;;;;;;;5075634;28;20384;-64
2024/02/28 05:00:48;;;;;;;0.60;0.60;;;;;;;;;;5075412;28;20114;-64
2024/02/28 05:03:13;;;;;;;0.20;0.20;;;;;;;;;;5075561;28;20302;-64
2024/02/28 05:05:38;;;;;;;0.10;0.10;;;;;;;;;;5075565;28;20028;-64
2024/02/28 05:08:04;;;;;;;0.20;0.20;;;;;;;;;;5075735;28;20341;-64
2024/02/28 05:10:29;;;;;;;0.47;0.47;;;;;;;;;;5075281;28;20040;-64
2024/02/28 05:12:54;;;;;;;0.67;0.30;;;;;;;;;;5075318;28;20036;-64
2024/02/28 05:15:20;;;;;;;0.30;0.30;;;;;;;;;;5075585;28;20245;-64
2024/02/28 05:17:45;;;;;;;0.27;0.27;;;;;;;;;;5075340;28;20253;-64
2024/02/28 05:20:10;;;;;;;0.83;0.43;;;;;;;;;;5075199;28;20376;-64
2024/02/28 05:22:36;;;;;;;0.10;0.10;;;;;;;;;;5074895;28;20246;-65
2024/02/28 05:25:01;;;;;;;0.30;0.30;;;;;;;;;;5075218;28;20400;-64
2024/02/28 05:27:27;;;;;;;0.10;0.10;;;;;;;;;;5075099;28;20324;-64
2024/02/28 05:29:52;;;;;;;0.50;0.50;;;;;;;;;;5075280;28;20473;-64
2024/02/28 05:32:18;;;;;;;1.07;0.50;;;;;;;;;;5074990;28;20112;-64
2024/02/28 05:34:43;;;;;;;0.10;0.10;;;;;;;;;;5074840;28;20256;-64
2024/02/28 05:37:08;;;;;;;0.10;0.10;;;;;;;;;;5075159;28;20029;-64
2024/02/28 05:39:34;;;;;;;0.00;0.00;;;;;;;;;;5074993;28;20350;-67
2024/02/28 05:41:59;;;;;;;1.40;0.50;;;;;;;;;;5075055;28;20021;-67
2024/02/28 05:44:25;;;;;;;0.57;0.57;;;;;;;;;;5074740;28;20096;-67
2024/02/28 05:46:50;;;;;;;0.10;0.10;;;;;;;;;;5074615;28;20020;-67
2024/02/28 05:49:16;;;;;;;0.20;0.20;;;;;;;;;;5074649;28;20077;-67
2024/02/28 05:51:41;;;;;;;0.40;0.40;;;;;;;;;;5074501;28;20037;-67
2024/02/28 05:54:06;;;;;;;0.10;0.10;;;;;;;;;;5074799;28;20017;-67
2024/02/28 05:56:31;;;;;;;1.38;1.27;;;;;;;;;;5074743;28;20478;-67
2024/02/28 05:58:57;;;;;;;0.23;0.23;;;;;;;;;;5074385;28;20020;-67
2024/02/28 06:01:22;;;;;;;0.63;0.63;;;;;;;;;;5074223;28;20304;-67
2024/02/28 06:03:48;;;;;;;1.10;1.00;;;;;;;;;;5074593;28;20019;-67
2024/02/28 06:06:13;;;;;;;0.82;0.82;;;;;;;;;;5074330;28;20058;-67
2024/02/28 06:08:39;;;;;;;1.00;1.00;;;;;;;;;;5074169;28;20012;-67
2024/02/28 06:11:05;;;;;;;0.22;0.22;;;;;;;;;;5074140;28;20074;-67
2024/02/28 06:13:30;;;;;;;0.77;0.77;;;;;;;;;;5074368;28;20098;-67
2024/02/28 06:15:56;;;;;;;0.17;0.17;;;;;;;;;;5074384;28;20028;-67
2024/02/28 06:18:23;;;;;;;0.40;0.40;;;;;;;;;;5074258;28;20020;-67
2024/02/28 06:20:48;;;;;;;0.10;0.10;;;;;;;;;;5073992;28;20021;-67
2024/02/28 06:23:13;;;;;;;0.10;0.10;;;;;;;;;;5073986;28;20059;-67
2024/02/28 06:25:38;;;;;;;0.50;0.50;;;;;;;;;;5074216;28;20094;-67
2024/02/28 06:28:06;;;;;;;0.20;0.20;;;;;;;;;;5074085;28;20017;-66
2024/02/28 06:30:31;;;;;;;0.10;0.10;;;;;;;;;;5073724;28;20324;-67
2024/02/28 06:32:59;;;;;;;0.10;0.10;;;;;;;;;;5073508;28;20060;-67
2024/02/28 06:35:25;;;;;;;0.43;0.43;;;;;;;;;;5073566;28;20036;-67
2024/02/28 06:37:51;;;;;;;0.17;0.17;;;;;;;;;;5055968;28;20435;-67
2024/02/28 06:40:16;;;;;;;0.50;0.50;;;;;;;;;;5073883;28;20028;-67
2024/02/28 06:42:42;;;;;;;0.08;0.08;;;;;;;;;;5073914;28;20433;-67
2024/02/28 06:45:08;;;;;;;0.10;0.10;;;;;;;;;;5073760;28;20012;-67
2024/02/28 06:47:33;;;;;;;0.20;0.20;;;;;;;;;;5073743;28;20422;-67
2024/02/28 06:49:59;;;;;;;0.35;0.35;;;;;;;;;;5073601;28;20025;-67
2024/02/28 06:52:24;;;;;;;0.10;0.10;;;;;;;;;;5073535;28;20032;-67
2024/02/28 06:54:49;;;;;;;0.17;0.17;;;;;;;;;;5073547;28;20303;-67
2024/02/28 06:57:14;;;;;;;0.23;0.23;;;;;;;;;;5073507;28;20056;-67
2024/02/28 06:59:40;;;;;;;0.13;0.13;;;;;;;;;;5073597;28;20265;-66
2024/02/28 07:02:05;;;;;;;0.50;0.50;;;;;;;;;;5073277;28;20515;-67
2024/02/28 07:04:30;;;;;;;0.20;0.20;;;;;;;;;;5073382;28;20709;-67
2024/02/28 07:06:55;;;;;;;0.10;0.10;;;;;;;;;;5055395;28;20737;-67
2024/02/28 07:09:20;;;;;;;1.85;1.30;;;;;;;;;;5073353;28;20021;-66
2024/02/28 07:11:46;;;;;;;0.20;0.20;;;;;;;;;;5073314;28;20036;-67
2024/02/28 07:14:12;;;;;;;0.63;0.63;;;;;;;;;;5073265;28;20257;-67
2024/02/28 07:16:37;;;;;;;0.52;0.40;;;;;;;;;;5073122;28;20034;-66
2024/02/28 07:19:02;;;;;;;0.38;0.38;;;;;;;;;;5073382;28;20021;-66
2024/02/28 07:21:27;;;;;;;0.45;0.45;;;;;;;;;;5073212;28;20070;-68
2024/02/28 07:23:54;;;;;;;1.00;0.47;;;;;;;;;;5072927;28;20353;-77
2024/02/28 07:26:19;;;;;;;0.30;0.30;;;;;;;;;;5073119;28;20017;-67
2024/02/28 07:28:49;;;;;;;0.20;0.20;;;;;;;;;;5073161;28;20012;-67
2024/02/28 07:31:18;;;;;;;0.20;0.20;;;;;;;;;;5073345;28;20388;-67
2024/02/28 07:33:43;;;;;;;0.38;0.38;;;;;;;;;;5073125;28;20514;-67
2024/02/28 07:36:10;;;;;;;0.68;0.68;;;;;;;;;;5073206;28;20052;-67
2024/02/28 07:38:35;;;;;;;3.80;0.65;;;;;;;;;;5073062;28;20036;-67
2024/02/28 07:41:00;;;;;;;0.75;0.75;;;;;;;;;;5072874;28;20024;-68
2024/02/28 07:43:25;;;;;;;0.30;0.30;;;;;;;;;;5072994;28;20024;-67
2024/02/28 07:45:51;;;;;;;0.20;0.20;;;;;;;;;;5075298;28;20242;-70
2024/02/28 07:48:19;;;;;;;0.73;0.73;;;;;;;;;;5077030;28;20395;-67
2024/02/28 07:50:45;;;;;;;0.00;0.00;;;;;;;;;;5076824;28;20268;-71
2024/02/28 07:53:10;;;;;;;0.28;0.28;;;;;;;;;;5077152;28;20032;-69
2024/02/28 07:55:35;;;;;;;0.45;0.45;;;;;;;;;;5077054;28;20480;-68
2024/02/28 07:58:00;;;;;;;0.07;0.07;;;;;;;;;;5076802;28;20032;-67
2024/02/28 08:00:26;;;;;;;0.68;0.63;;;;;;;;;;5076713;28;20273;-68
2024/02/28 08:02:51;;;;;;;0.73;0.50;;;;;;;;;;5076668;28;20056;-68
2024/02/28 08:05:17;;;;;;;0.10;0.10;;;;;;;;;;5076609;28;20064;-69
2024/02/28 08:07:42;;;;;;;0.10;0.10;;;;;;;;;;5076518;28;20099;-69
2024/02/28 08:10:09;;;;;;;2.40;0.73;;;;;;;;;;5076737;28;20062;-69
2024/02/28 08:12:35;;;;;;;0.47;0.47;;;;;;;;;;5096646;28;20306;-69
2024/02/28 08:15:00;;;;;;;0.10;0.10;;;;;;;;;;5096683;28;20032;-69
2024/02/28 08:17:25;;;;;;;0.93;0.73;;;;;;;;;;5096665;28;20106;-69
2024/02/28 08:19:50;;;;;;;0.13;0.13;;;;;;;;;;5096608;28;20315;-69
2024/02/28 08:22:16;;;;;;;0.30;0.30;;;;;;;;;;5096615;28;20260;-69
2024/02/28 08:24:41;;;;;;;1.73;0.70;;;;;;;;;;5096311;28;20253;-69
2024/02/28 08:27:06;;;;;;;0.70;0.70;;;;;;;;;;5095654;28;20027;-69
2024/02/28 08:29:32;;;;;;;0.52;0.52;;;;;;;;;;5089971;28;20035;-69
2024/02/28 08:31:58;;;;;;;0.13;0.13;;;;;;;;;;5075682;28;20396;-69
2024/02/28 08:34:23;;;;;;;0.38;0.38;;;;;;;;;;5075141;28;20020;-69
2024/02/28 08:36:48;;;;;;;0.20;0.20;;;;;;;;;;5075370;28;20415;-69
2024/02/28 08:39:14;;;;;;;0.10;0.10;;;;;;;;;;5075003;28;20070;-69
2024/02/28 08:41:39;;;;;;;0.30;0.30;;;;;;;;;;5074792;28;20253;-69
2024/02/28 08:44:04;;;;;;;2.65;1.58;;;;;;;;;;5075343;28;20253;-69
2024/02/28 08:46:30;;;;;;;0.23;0.23;;;;;;;;;;5075339;28;20298;-69
2024/02/28 08:48:55;;;;;;;1.60;1.00;;;;;;;;;;5075391;28;20249;-69
2024/02/28 08:51:20;;;;;;;0.73;0.73;;;;;;;;;;5075323;28;20104;-70
2024/02/28 08:53:45;;;;;;;0.20;0.20;;;;;;;;;;5075318;28;20397;-70
2024/02/28 08:56:11;;;;;;;0.30;0.30;;;;;;;;;;5074096;28;20020;-70
2024/02/28 08:58:37;;;;;;;0.20;0.20;;;;;;;;;;5075067;28;20307;-70
2024/02/28 09:01:02;;;;;;;0.00;0.00;;;;;;;;;;5074903;28;20658;-69
2024/02/28 09:03:28;;;;;;;1.20;1.13;;;;;;;;;;5074995;28;20024;-70
2024/02/28 09:05:53;;;;;;;0.47;0.47;;;;;;;;;;5075247;28;20036;-70
2024/02/28 09:08:18;;;;;;;0.35;0.35;;;;;;;;;;5074851;28;20028;-69
2024/02/28 09:10:43;;;;;;;1.20;1.17;;;;;;;;;;5074152;28;20410;-69
2024/02/28 09:13:10;;;;;;;0.70;0.70;;;;;;;;;;5074625;28;20249;-70
2024/02/28 09:15:35;;;;;;;1.58;0.57;;;;;;;;;;5075085;28;20021;-70
2024/02/28 09:18:01;;;;;;;0.77;0.77;;;;;;;;;;5074733;28;20361;-70
2024/02/28 09:20:26;;;;;;;1.85;1.30;;;;;;;;;;5074800;28;20262;-70
2024/02/28 09:22:51;;;;;;;2.25;0.98;;;;;;;;;;5074684;28;20024;-70
2024/02/28 09:25:18;;;;;;;0.10;0.10;;;;;;;;;;5073943;28;20066;-70
2024/02/28 09:27:43;;;;;;;0.35;0.35;;;;;;;;;;5074704;28;20024;-70
2024/02/28 09:30:08;;;;;;;0.40;0.40;;;;;;;;;;5074505;28;20545;-70
2024/02/28 09:32:34;;;;;;;0.77;0.75;;;;;;;;;;5074353;28;20103;-70
2024/02/28 09:34:59;;;;;;;0.70;0.70;;;;;;;;;;5074519;28;20027;-70
2024/02/28 09:37:24;;;;;;;0.10;0.10;;;;;;;;;;5074202;28;20318;-70
2024/02/28 09:39:50;;;;;;;0.60;0.52;;;;;;;;;;5073698;28;20024;-70
2024/02/28 09:42:15;;;;;;;0.75;0.65;;;;;;;;;;5073876;28;20036;-70
2024/02/28 09:44:42;;;;;;;0.40;0.40;;;;;;;;;;5074593;28;20051;-70
2024/02/28 09:47:07;;;;;;;0.52;0.52;;;;;;;;;;5074057;28;20044;-70
2024/02/28 09:49:33;;;;;;;1.45;1.35;;;;;;;;;;5074172;28;20091;-70
2024/02/28 09:51:59;;;;;;;0.30;0.30;;;;;;;;;;5074113;28;20073;-70
2024/02/28 09:54:25;;;;;;;0.52;0.52;;;;;;;;;;5073702;28;20016;-70
2024/02/28 09:56:50;;;;;;;3.72;0.73;;;;;;;;;;5073704;28;20040;-70
2024/02/28 09:59:17;;;;;;;0.98;0.90;;;;;;;;;;5074065;28;20134;-69
2024/02/28 10:01:44;;;;;;;1.35;0.98;;;;;;;;;;5073640;28;20404;-69
2024/02/28 10:04:10;;;;;;;0.82;0.82;;;;;;;;;;5073695;28;20024;-69
2024/02/28 10:06:36;;;;;;;1.15;1.05;;;;;;;;;;5073979;28;20488;-69
2024/02/28 10:09:01;;;;;;;1.13;1.13;;;;;;;;;;5072722;28;20102;-69
2024/02/28 10:11:26;;;;;;;2.05;0.65;;;;;;;;;;5072750;28;20267;-69
2024/02/28 10:13:52;;;;;;;1.88;1.00;;;;;;;;;;5073957;28;20016;-69
2024/02/28 10:16:17;;;;;;;1.70;1.60;;;;;;;;;;5073442;28;20035;-69
2024/02/28 10:18:43;;;;;;;0.10;0.10;;;;;;;;;;5073560;28;20016;-69
2024/02/28 10:21:09;;;;;;;0.13;0.13;;;;;;;;;;5073519;28;20048;-69
2024/02/28 10:23:34;;;;;;;0.47;0.47;;;;;;;;;;5073493;28;20013;-69
2024/02/28 10:26:00;;;;;;;0.90;0.75;;;;;;;;;;5072894;28;20476;-69
2024/02/28 10:28:26;;;;;;;2.90;1.33;;;;;;;;;;5073287;28;20012;-69
2024/02/28 10:30:52;;;;;;;5.07;2.40;;;;;;;;;;5073633;28;20039;-69
2024/02/28 10:33:17;;;;;;;0.98;0.98;;;;;;;;;;5073057;28;20047;-69
2024/02/28 10:35:43;;;;;;;0.40;0.40;;;;;;;;;;5073560;28;20108;-69
2024/02/28 10:38:12;;;;;;;3.42;1.23;;;;;;;;;;5073099;28;20016;-69
2024/02/28 10:40:37;;;;;;;0.43;0.43;;;;;;;;;;5072481;28;20040;-69
2024/02/28 10:43:04;;;;;;;1.10;1.00;;;;;;;;;;5073008;28;20056;-69
2024/02/28 10:45:31;;;;;;;0.98;0.82;;;;;;;;;;5073355;28;20020;-69
2024/02/28 10:47:56;;;;;;;4.38;0.73;;;;;;;;;;5073003;28;20017;-69
2024/02/28 10:50:21;;;;;;;0.13;0.13;;;;;;;;;;5072906;28;20031;-69
2024/02/28 10:52:50;;;;;;;0.22;0.22;;;;;;;;;;5072928;28;20056;-69
2024/02/28 10:55:20;;;;;;;0.10;0.10;;;;;;;;;;5072243;28;20115;-69
2024/02/28 10:57:46;;;;;;;0.25;0.25;;;;;;;;;;5072882;28;20025;-69
2024/02/28 11:00:13;;;;;;;0.63;0.63;;;;;;;;;;5072965;28;20491;-69
2024/02/28 11:02:39;;;;;;;0.22;0.22;;;;;;;;;;5072793;28;20120;-69
2024/02/28 11:05:04;;;;;;;0.22;0.22;;;;;;;;;;5072636;28;20120;-69
2024/02/28 11:07:30;;;;;;;0.52;0.52;;;;;;;;;;5072942;28;20357;-69
2024/02/28 11:09:55;;;;;;;0.47;0.47;;;;;;;;;;5072331;28;20025;-70
2024/02/28 11:12:27;;;;;;;0.43;0.43;;;;;;;;;;5072340;28;20025;-70
2024/02/28 11:14:59;;;;;;;1.40;1.30;;;;;;;;;;5072816;28;20028;-70
2024/02/28 11:17:29;;;;;;;2.63;1.02;;;;;;;;;;5072606;28;20506;-70
2024/02/28 11:19:54;;;;;;;1.02;0.90;;;;;;;;;;5072591;28;20542;-70
2024/02/28 11:22:20;;;;;;;0.28;0.28;;;;;;;;;;5072762;28;20052;-70
2024/02/28 11:24:46;;;;;;;2.40;1.48;;;;;;;;;;5071761;28;20021;-70
2024/02/28 11:27:13;;;;;;;2.30;1.33;;;;;;;;;;5072072;28;20491;-70
2024/02/28 11:29:39;;;;;;;2.05;1.92;;;;;;;;;;5072512;28;20055;-70
2024/02/28 11:32:05;;;;;;;1.73;1.63;;;;;;;;;;5072406;28;20059;-70
2024/02/28 11:34:30;;;;;;;1.45;0.90;;;;;;;;;;5072486;28;20020;-70
2024/02/28 11:36:55;;;;;;;2.90;1.73;;;;;;;;;;5072495;28;20016;-70
2024/02/28 11:39:24;;;;;;;0.22;0.22;;;;;;;;;;5053855;28;20028;-70
2024/02/28 11:41:49;;;;;;;1.75;1.27;;;;;;;;;;5087672;28;20028;-70
2024/02/28 11:44:15;;;;;;;0.57;0.47;;;;;;;;;;5092401;28;20031;-70
2024/02/28 11:46:47;;;;;;;1.05;0.95;;;;;;;;;;5092626;28;20018;-69
2024/02/28 11:49:13;;;;;;;0.25;0.25;;;;;;;;;;5092662;28;20512;-70
2024/02/28 11:51:42;;;;;;;1.10;1.00;;;;;;;;;;5092643;28;20043;-69
2024/02/28 11:54:08;;;;;;;0.20;0.20;;;;;;;;;;5092054;28;20035;-70
2024/02/28 11:56:34;;;;;;;1.38;1.27;;;;;;;;;;5092823;28;20051;-70
2024/02/28 11:58:59;;;;;;;0.70;0.70;;;;;;;;;;5092495;28;20047;-70
2024/02/28 12:01:34;;;;;;;1.15;1.15;;;;;;;;;;5092172;28;20048;-70
2024/02/28 12:03:59;;;;;;;0.40;0.40;;;;;;;;;;5092370;28;20024;-70
2024/02/28 12:06:25;;;;;;;0.77;0.77;;;;;;;;;;5092646;28;20016;-69
2024/02/28 12:08:50;;;;;;;0.20;0.20;;;;;;;;;;5091933;28;20016;-70
2024/02/28 12:11:15;;;;;;;0.73;0.73;;;;;;;;;;5092159;28;20261;-70
2024/02/28 12:13:40;;;;;;;0.70;0.70;;;;;;;;;;5092417;28;20036;-70
2024/02/28 12:16:07;;;;;;;0.93;0.87;;;;;;;;;;5092263;28;20283;-70
2024/02/28 12:18:33;;;;;;;0.75;0.75;;;;;;;;;;5074518;28;20240;-69
2024/02/28 12:20:58;;;;;;;2.90;1.70;;;;;;;;;;5092352;28;20528;-69
2024/02/28 12:23:23;;;;;;;1.67;1.40;;;;;;;;;;5091648;28;20716;-69
2024/02/28 12:25:48;;;;;;;0.80;0.80;;;;;;;;;;5092294;28;20255;-69
2024/02/28 12:28:14;;;;;;;0.30;0.30;;;;;;;;;;5092108;28;20248;-69
2024/02/28 12:30:43;;;;;;;2.05;1.23;;;;;;;;;;5092314;28;20253;-69
2024/02/28 12:33:09;;;;;;;0.60;0.55;;;;;;;;;;5094694;28;20023;-69
2024/02/28 12:35:34;;;;;;;0.47;0.30;;;;;;;;;;5095866;28;20020;-69
2024/02/28 12:37:59;;;;;;;0.50;0.50;;;;;;;;;;5095540;28;20077;-69
2024/02/28 12:40:25;;;;;;;0.60;0.60;;;;;;;;;;5095389;28;20047;-69
2024/02/28 12:42:50;;;;;;;0.55;0.55;;;;;;;;;;5096012;28;20020;-69
2024/02/28 12:45:15;;;;;;;0.25;0.25;;;;;;;;;;5095422;28;20061;-69
2024/02/28 12:47:41;;;;;;;0.63;0.38;;;;;;;;;;5095916;28;20476;-69
2024/02/28 12:50:08;;;;;;;0.83;0.83;;;;;;;;;;5095403;28;20027;-69
2024/02/28 12:52:33;;;;;;;0.60;0.60;;;;;;;;;;5095398;28;20294;-69
2024/02/28 12:54:58;;;;;;;1.43;0.67;;;;;;;;;;5095357;28;20028;-69
2024/02/28 12:57:23;;;;;;;0.30;0.30;;;;;;;;;;5095306;28;20799;-69
2024/02/28 12:59:49;;;;;;;0.97;0.77;;;;;;;;;;5095290;28;20308;-69
2024/02/28 13:02:15;;;;;;;3.87;2.43;;;;;;;;;;5095032;28;20281;-69
2024/02/28 13:04:41;;;;;;;0.20;0.20;;;;;;;;;;5095523;28;20244;-69
2024/02/28 13:07:06;;;;;;;0.10;0.10;;;;;;;;;;5095366;28;20019;-69
2024/02/28 13:09:31;;;;;;;0.97;0.93;;;;;;;;;;5094541;28;20016;-69
2024/02/28 13:11:56;;;;;;;0.10;0.10;;;;;;;;;;5094871;28;20338;-69
2024/02/28 13:14:22;;;;;;;0.30;0.30;;;;;;;;;;5094895;28;20055;-69
2024/02/28 13:16:48;;;;;;;0.35;0.35;;;;;;;;;;5095097;28;20468;-69
2024/02/28 13:19:13;;;;;;;0.10;0.10;;;;;;;;;;5095021;28;20020;-69
2024/02/28 13:21:39;;;;;;;0.30;0.30;;;;;;;;;;5095255;28;20413;-69
2024/02/28 13:24:05;;;;;;;0.20;0.20;;;;;;;;;;5094076;28;20031;-69
2024/02/28 13:26:30;;;;;;;0.32;0.32;;;;;;;;;;5095111;28;20050;-69
2024/02/28 13:28:55;;;;;;;0.35;0.20;;;;;;;;;;5094897;28;20043;-69
2024/02/28 13:31:20;;;;;;;1.30;0.63;;;;;;;;;;5094936;28;20028;-69
2024/02/28 13:33:48;;;;;;;0.93;0.73;;;;;;;;;;5094769;28;20047;-69
2024/02/28 13:36:13;;;;;;;1.80;1.23;;;;;;;;;;5094434;28;20060;-69
2024/02/28 13:38:38;;;;;;;1.30;1.20;;;;;;;;;;5094139;28;20047;-69
2024/02/28 13:41:04;;;;;;;0.00;0.00;;;;;;;;;;5094244;28;20031;-69
2024/02/28 13:43:29;;;;;;;0.60;0.60;;;;;;;;;;5094295;28;20023;-69
2024/02/28 13:45:59;;;;;;;0.47;0.47;;;;;;;;;;5094595;28;20016;-69
2024/02/28 13:48:25;;;;;;;0.00;0.00;;;;;;;;;;5094289;28;20249;-69
2024/02/28 13:50:51;;;;;;;1.00;0.52;;;;;;;;;;5094348;28;20138;-69
2024/02/28 13:53:16;;;;;;;0.20;0.20;;;;;;;;;;5093704;28;20032;-69
2024/02/28 13:55:45;;;;;;;0.10;0.10;;;;;;;;;;5094602;28;20028;-69
2024/02/28 13:58:14;;;;;;;0.88;0.32;;;;;;;;;;5094203;28;20069;-69
2024/02/28 14:00:39;;;;;;;0.05;0.05;;;;;;;;;;5093918;28;20065;-69
2024/02/28 14:03:08;;;;;;;0.38;0.38;;;;;;;;;;5094042;28;20012;-69
2024/02/28 14:05:33;;;;;;;1.00;0.90;;;;;;;;;;5094036;28;20354;-69
2024/02/28 14:07:59;;;;;;;0.40;0.40;;;;;;;;;;5093647;28;20523;-69
2024/02/28 14:10:24;;;;;;;0.45;0.45;;;;;;;;;;5093929;28;20685;-69
2024/02/28 14:12:53;;;;;;;0.00;0.00;;;;;;;;;;5093910;28;20114;-69
2024/02/28 14:15:19;;;;;;;0.45;0.43;;;;;;;;;;5093689;28;20028;-69
2024/02/28 14:17:44;;;;;;;0.63;0.63;;;;;;;;;;5093926;28;20129;-69
2024/02/28 14:20:10;;;;;;;0.10;0.10;;;;;;;;;;5093808;28;20103;-69
2024/02/28 14:22:35;;;;;;;0.30;0.30;;;;;;;;;;5093582;28;20091;-69
2024/02/28 14:25:00;;;;;;;0.13;0.13;;;;;;;;;;5093680;28;20039;-68
2024/02/28 14:27:30;;;;;;;0.10;0.10;;;;;;;;;;5093593;28;20024;-73
2024/02/28 14:29:55;;;;;;;0.52;0.52;;;;;;;;;;5093656;28;20275;-77
2024/02/28 14:32:20;;;;;;;0.65;0.40;;;;;;;;;;5075227;28;20024;-78
2024/02/28 14:34:46;;;;;;;0.40;0.40;;;;;;;;;;5093578;28;20024;-78